createdAt,value
2022-08-17T00:00:43.055Z,19.80
2022-08-17T00:03:18.892Z,19.70
2022-08-17T00:06:02.318Z,19.70
2022-08-17T00:08:34.528Z,19.70
2022-08-17T00:11:06.095Z,19.80
2022-08-17T00:13:41.555Z,19.70
2022-08-17T00:16:19.706Z,19.60
2022-08-17T00:19:06.103Z,19.50
2022-08-17T00:22:32.815Z,19.50
2022-08-17T00:24:28.286Z,19.50
2022-08-17T00:26:55.771Z,19.40
2022-08-17T00:29:23.330Z,19.30
2022-08-17T00:31:50.742Z,19.30
2022-08-17T00:34:18.296Z,19.30
2022-08-17T00:36:47.861Z,19.20
2022-08-17T00:39:17.600Z,19.20
2022-08-17T00:41:47.930Z,19.10
2022-08-17T00:44:17.722Z,19.00
2022-08-17T00:46:45.403Z,19.00
2022-08-17T00:49:14.490Z,19.00
2022-08-17T00:51:56.773Z,18.90
2022-08-17T00:54:42.048Z,18.80
2022-08-17T00:57:25.563Z,18.80
2022-08-17T01:00:02.641Z,18.80
2022-08-17T01:02:42.147Z,18.70
2022-08-17T01:05:25.390Z,18.70
2022-08-17T01:07:54.070Z,18.70
2022-08-17T01:11:00.629Z,18.70
2022-08-17T01:13:18.799Z,18.80
2022-08-17T01:15:59.155Z,18.80
2022-08-17T01:18:29.283Z,18.70
2022-08-17T01:20:58.536Z,18.70
2022-08-17T01:23:28.953Z,18.60
2022-08-17T01:26:02.343Z,18.60
2022-08-17T01:28:33.638Z,18.60
2022-08-17T01:31:20.276Z,18.50
2022-08-17T01:33:47.704Z,18.50
2022-08-17T01:36:18.002Z,18.60
2022-08-17T01:38:45.658Z,18.60
2022-08-17T01:41:16.556Z,18.50
2022-08-17T01:43:51.380Z,18.50
2022-08-17T01:46:24.997Z,18.40
2022-08-17T01:48:56.144Z,18.30
2022-08-17T01:51:29.405Z,18.20
2022-08-17T01:54:00.324Z,18.20
2022-08-17T01:56:29.467Z,18.10
2022-08-17T01:58:59.377Z,18.10
2022-08-17T02:01:29.637Z,18.10
2022-08-17T02:04:00.498Z,18.10
2022-08-17T02:06:53.090Z,18.00
2022-08-17T02:09:27.204Z,17.90
2022-08-17T02:11:59.135Z,17.90
2022-08-17T02:14:29.111Z,17.80
2022-08-17T02:16:58.883Z,17.80
2022-08-17T02:19:28.594Z,17.70
2022-08-17T02:21:56.453Z,17.60
2022-08-17T02:24:59.778Z,17.50
2022-08-17T02:27:18.810Z,17.40
2022-08-17T02:29:46.189Z,17.40
2022-08-17T02:32:28.027Z,17.30
2022-08-17T02:34:57.996Z,17.20
2022-08-17T02:37:27.035Z,17.20
2022-08-17T02:39:54.767Z,17.10
2022-08-17T02:42:40.326Z,17.10
2022-08-17T02:45:12.915Z,17.00
2022-08-17T02:47:40.866Z,17.00
2022-08-17T02:50:11.986Z,16.90
2022-08-17T02:52:43.686Z,16.90
2022-08-17T02:55:35.478Z,16.80
2022-08-17T02:58:05.351Z,16.90
2022-08-17T03:00:46.188Z,16.80
2022-08-17T03:06:15.456Z,16.70
2022-08-17T03:08:42.831Z,16.70
2022-08-17T03:11:13.004Z,16.70
2022-08-17T03:13:40.418Z,16.70
2022-08-17T03:16:09.200Z,16.60
2022-08-17T03:18:36.862Z,16.50
2022-08-17T03:21:04.627Z,16.50
2022-08-17T03:23:33.090Z,16.40
2022-08-17T03:26:01.054Z,16.40
2022-08-17T03:28:29.561Z,16.40
2022-08-17T03:30:56.998Z,16.30
2022-08-17T03:33:24.411Z,16.30
2022-08-17T03:35:52.181Z,16.30
2022-08-17T03:38:21.805Z,16.30
2022-08-17T03:40:57.058Z,16.20
2022-08-17T03:43:30.358Z,16.20
2022-08-17T03:46:27.571Z,16.20
2022-08-17T03:49:15.324Z,16.20
2022-08-17T03:52:03.713Z,16.30
2022-08-17T03:54:49.585Z,16.20
2022-08-17T03:57:17.111Z,16.30
2022-08-17T03:59:45.119Z,16.30
2022-08-17T04:02:38.800Z,16.20
2022-08-17T04:05:06.524Z,16.20
2022-08-17T04:07:33.928Z,16.30
2022-08-17T04:10:04.233Z,16.30
2022-08-17T04:12:49.331Z,16.30
2022-08-17T04:15:18.256Z,16.30
2022-08-17T04:17:46.039Z,16.30
2022-08-17T04:20:15.661Z,16.20
2022-08-17T04:23:21.495Z,16.30
2022-08-17T04:25:51.144Z,16.30
2022-08-17T04:28:19.944Z,16.40
2022-08-17T04:30:47.631Z,16.50
2022-08-17T04:33:18.446Z,16.60
2022-08-17T04:35:49.351Z,16.70
2022-08-17T04:38:19.739Z,16.80
2022-08-17T04:41:06.167Z,17.00
2022-08-17T04:43:35.223Z,17.20
2022-08-17T04:46:05.686Z,17.40
2022-08-17T04:48:37.428Z,17.60
2022-08-17T04:51:19.086Z,17.80
2022-08-17T04:53:54.544Z,18.00
2022-08-17T04:56:25.123Z,18.20
2022-08-17T04:58:55.262Z,18.40
2022-08-17T05:01:25.633Z,18.50
2022-08-17T05:03:56.059Z,18.70
2022-08-17T05:06:23.653Z,18.80
2022-08-17T05:08:51.197Z,19.00
2022-08-17T05:11:18.699Z,19.10
2022-08-17T05:13:46.454Z,19.20
2022-08-17T05:16:13.868Z,19.30
2022-08-17T05:18:41.336Z,19.30
2022-08-17T05:21:08.947Z,19.30
2022-08-17T05:23:41.969Z,19.40
2022-08-17T05:26:25.613Z,19.50
2022-08-17T05:28:56.939Z,19.70
2022-08-17T05:31:24.752Z,19.80
2022-08-17T05:33:53.325Z,19.90
2022-08-17T05:36:43.542Z,19.90
2022-08-17T05:39:08.223Z,20.10
2022-08-17T05:41:41.804Z,20.10
2022-08-17T05:44:09.151Z,20.20
2022-08-17T05:46:41.516Z,20.30
2022-08-17T05:49:09.548Z,20.40
2022-08-17T05:52:01.278Z,20.50
2022-08-17T05:55:14.326Z,20.70
2022-08-17T05:58:23.394Z,20.90
2022-08-17T06:01:25.836Z,21.00
2022-08-17T06:04:05.481Z,21.20
2022-08-17T06:06:58.141Z,21.40
2022-08-17T06:09:34.460Z,21.40
2022-08-17T06:12:57.631Z,21.40
2022-08-17T06:15:50.102Z,21.50
2022-08-17T06:18:19.310Z,21.60
2022-08-17T06:20:57.512Z,21.80
2022-08-17T06:23:36.277Z,22.00
2022-08-17T06:26:16.159Z,22.10
2022-08-17T06:29:08.928Z,22.30
2022-08-17T06:31:46.610Z,22.40
2022-08-17T06:34:14.054Z,22.50
2022-08-17T06:37:05.566Z,22.60
2022-08-17T06:40:28.693Z,22.70
2022-08-17T06:43:25.822Z,22.80
2022-08-17T06:46:18.722Z,23.10
2022-08-17T06:49:07.960Z,23.40
2022-08-17T06:51:40.470Z,23.70
2022-08-17T06:54:38.211Z,24.10
2022-08-17T06:57:15.226Z,24.20
2022-08-17T07:00:09.297Z,24.50
2022-08-17T07:03:11.721Z,24.70
2022-08-17T07:05:52.716Z,25.20
2022-08-17T07:08:38.380Z,25.60
2022-08-17T07:11:14.231Z,26.00
2022-08-17T07:14:24.207Z,26.30
2022-08-17T07:16:54.158Z,26.50
2022-08-17T07:19:24.413Z,26.90
2022-08-17T07:22:10.705Z,27.00
2022-08-17T07:25:05.604Z,27.40
2022-08-17T07:27:40.898Z,27.40
2022-08-17T07:30:21.963Z,27.90
2022-08-17T07:32:59.463Z,28.20
2022-08-17T07:35:44.130Z,28.40
2022-08-17T07:38:33.592Z,28.60
2022-08-17T07:41:06.399Z,28.70
2022-08-17T07:44:00.172Z,28.90
2022-08-17T07:46:53.257Z,29.20
2022-08-17T07:49:35.545Z,29.60
2022-08-17T07:52:48.196Z,29.10
2022-08-17T07:55:00.531Z,29.50
2022-08-17T07:57:34.517Z,30.20
2022-08-17T08:00:27.975Z,30.30
2022-08-17T08:03:17.453Z,30.30
2022-08-17T08:05:56.834Z,30.30
2022-08-17T08:08:28.211Z,30.50
2022-08-17T08:11:07.349Z,31.00
2022-08-17T08:13:42.558Z,31.50
2022-08-17T08:16:29.830Z,31.40
2022-08-17T08:19:00.335Z,31.80
2022-08-17T08:21:54.549Z,31.40
2022-08-17T08:24:52.325Z,30.90
2022-08-17T08:28:05.706Z,30.80
2022-08-17T08:30:37.523Z,31.00
2022-08-17T08:33:28.941Z,31.10
2022-08-17T08:37:14.711Z,30.60
2022-08-17T08:39:22.192Z,30.50
2022-08-17T08:42:13.106Z,30.90
2022-08-17T08:45:10.248Z,31.40
2022-08-17T08:48:05.972Z,31.50
2022-08-17T08:50:43.249Z,31.30
2022-08-17T08:53:23.698Z,31.30
2022-08-17T08:56:12.499Z,31.30
2022-08-17T08:59:28.467Z,31.40
2022-08-17T09:02:24.032Z,30.90
2022-08-17T09:05:14.316Z,31.20
2022-08-17T09:08:19.638Z,31.50
2022-08-17T09:12:02.362Z,31.80
2022-08-17T09:15:03.639Z,31.60
2022-08-17T09:17:46.255Z,31.90
2022-08-17T09:20:28.237Z,31.50
2022-08-17T09:23:10.819Z,31.30
2022-08-17T09:25:49.954Z,31.10
2022-08-17T09:28:24.102Z,31.30
2022-08-17T09:30:55.946Z,31.60
2022-08-17T09:33:29.737Z,31.60
2022-08-17T09:36:15.580Z,31.60
2022-08-17T09:39:15.224Z,32.00
2022-08-17T09:42:17.720Z,32.20
2022-08-17T09:45:16.220Z,31.70
2022-08-17T09:48:18.540Z,31.20
2022-08-17T09:51:13.754Z,31.40
2022-08-17T09:53:44.566Z,31.90
2022-08-17T09:56:31.306Z,32.40
2022-08-17T09:59:46.769Z,33.00
2022-08-17T10:02:36.879Z,32.90
2022-08-17T10:05:26.105Z,32.80
2022-08-17T10:08:07.354Z,32.60
2022-08-17T10:10:56.725Z,32.40
2022-08-17T10:13:53.425Z,32.90
2022-08-17T10:16:45.836Z,33.30
2022-08-17T10:19:49.534Z,33.70
2022-08-17T10:22:55.308Z,33.90
2022-08-17T10:25:54.654Z,34.00
2022-08-17T10:28:30.589Z,34.20
2022-08-17T10:31:33.206Z,34.30
2022-08-17T10:34:52.696Z,33.50
2022-08-17T10:37:40.781Z,33.30
2022-08-17T10:40:45.464Z,33.40
2022-08-17T10:43:32.426Z,34.10
2022-08-17T10:46:31.622Z,33.90
2022-08-17T10:49:32.175Z,34.10
2022-08-17T10:52:41.447Z,34.40
2022-08-17T10:55:20.713Z,34.20
2022-08-17T10:57:50.642Z,33.70
2022-08-17T11:01:04.031Z,33.30
2022-08-17T11:03:34.850Z,33.10
2022-08-17T11:06:14.219Z,33.70
2022-08-17T11:09:16.352Z,33.90
2022-08-17T11:12:22.660Z,34.10
2022-08-17T11:15:18.254Z,34.50
2022-08-17T11:18:21.718Z,34.80
2022-08-17T11:21:20.492Z,35.20
2022-08-17T11:24:11.553Z,35.30
2022-08-17T11:26:47.685Z,35.40
2022-08-17T11:29:24.588Z,35.60
2022-08-17T11:32:06.545Z,35.40
2022-08-17T11:34:41.825Z,35.30
2022-08-17T11:37:35.755Z,35.10
2022-08-17T11:40:57.238Z,35.20
2022-08-17T11:43:44.624Z,34.80
2022-08-17T11:47:07.680Z,34.00
2022-08-17T11:50:24.533Z,34.10
2022-08-17T11:52:55.655Z,34.50
2022-08-17T11:56:12.239Z,34.50
2022-08-17T11:58:44.129Z,33.80
2022-08-17T12:01:41.489Z,34.20
2022-08-17T12:04:35.617Z,34.30
2022-08-17T12:07:18.525Z,34.50
2022-08-17T12:09:54.025Z,34.70
2022-08-17T12:12:33.377Z,34.70
2022-08-17T12:15:10.689Z,34.80
2022-08-17T12:17:52.025Z,34.60
2022-08-17T12:20:38.330Z,35.00
2022-08-17T12:23:30.989Z,35.20
2022-08-17T12:26:10.788Z,35.00
2022-08-17T12:28:47.897Z,35.10
2022-08-17T12:31:28.516Z,34.80
2022-08-17T12:33:56.822Z,34.50
2022-08-17T12:36:28.283Z,34.70
2022-08-17T12:39:14.369Z,34.70
2022-08-17T12:41:48.329Z,35.00
2022-08-17T12:44:25.388Z,34.80
2022-08-17T12:47:04.739Z,35.00
2022-08-17T12:49:37.582Z,35.60
2022-08-17T12:52:30.316Z,36.10
2022-08-17T12:55:01.108Z,35.90
2022-08-17T12:57:54.295Z,35.90
2022-08-17T13:00:31.389Z,35.90
2022-08-17T13:03:09.726Z,35.60
2022-08-17T13:05:44.055Z,35.80
2022-08-17T13:08:19.960Z,35.90
2022-08-17T13:11:03.008Z,36.30
2022-08-17T13:13:33.561Z,36.50
2022-08-17T13:16:34.865Z,36.10
2022-08-17T13:19:29.736Z,36.20
2022-08-17T13:22:11.830Z,35.40
2022-08-17T13:24:57.785Z,35.30
2022-08-17T13:27:28.086Z,35.70
2022-08-17T13:29:59.981Z,35.90
2022-08-17T13:32:43.729Z,36.00
2022-08-17T13:35:44.261Z,36.00
2022-08-17T13:38:45.722Z,35.60
2022-08-17T13:41:34.742Z,36.00
2022-08-17T13:44:02.518Z,36.50
2022-08-17T13:46:32.714Z,37.20
2022-08-17T13:49:06.391Z,37.40
2022-08-17T13:51:41.441Z,36.90
2022-08-17T13:54:22.686Z,36.20
2022-08-17T13:57:21.842Z,35.60
2022-08-17T13:59:54.707Z,35.10
2022-08-17T14:02:26.009Z,35.50
2022-08-17T14:05:02.015Z,35.90
2022-08-17T14:07:38.056Z,36.10
2022-08-17T14:10:17.614Z,35.90
2022-08-17T14:12:46.091Z,35.60
2022-08-17T14:15:16.914Z,36.00
2022-08-17T14:17:44.537Z,36.10
2022-08-17T14:20:13.728Z,36.40
2022-08-17T14:22:45.552Z,36.30
2022-08-17T14:25:15.620Z,36.20
2022-08-17T14:27:52.055Z,36.20
2022-08-17T14:30:28.957Z,36.30
2022-08-17T14:32:58.197Z,36.00
2022-08-17T14:35:27.980Z,36.20
2022-08-17T14:37:56.471Z,36.20
2022-08-17T14:40:25.060Z,36.20
2022-08-17T14:42:55.338Z,36.30
2022-08-17T14:45:32.197Z,36.40
2022-08-17T14:48:04.282Z,36.20
2022-08-17T14:50:32.157Z,35.90
2022-08-17T14:53:05.260Z,35.60
2022-08-17T14:55:33.673Z,35.50
2022-08-17T14:58:01.304Z,35.60
2022-08-17T15:00:28.861Z,35.10
2022-08-17T15:02:59.090Z,34.50
2022-08-17T15:05:31.883Z,34.20
2022-08-17T15:08:01.321Z,33.80
2022-08-17T15:10:29.929Z,33.40
2022-08-17T15:12:58.338Z,33.20
2022-08-17T15:15:26.487Z,32.90
2022-08-17T15:17:56.921Z,32.90
2022-08-17T15:20:28.183Z,32.80
2022-08-17T15:22:57.525Z,32.70
2022-08-17T15:25:27.770Z,32.70
2022-08-17T15:27:56.049Z,32.70
2022-08-17T15:30:25.767Z,32.60
2022-08-17T15:32:54.912Z,32.60
2022-08-17T15:35:29.129Z,32.50
2022-08-17T15:38:09.873Z,32.40
2022-08-17T15:40:42.299Z,32.50
2022-08-17T15:43:16.280Z,32.80
2022-08-17T15:45:44.563Z,32.80
2022-08-17T15:48:43.452Z,32.70
2022-08-17T15:51:32.874Z,32.80
2022-08-17T15:54:18.683Z,32.60
2022-08-17T15:56:46.533Z,32.60
2022-08-17T15:59:14.064Z,32.80
2022-08-17T16:02:15.404Z,33.10
2022-08-17T16:04:30.857Z,33.60
2022-08-17T16:06:59.354Z,34.30
2022-08-17T16:09:27.249Z,34.70
2022-08-17T16:11:56.091Z,35.20
2022-08-17T16:14:32.529Z,35.50
2022-08-17T16:17:04.651Z,35.40
2022-08-17T16:19:33.503Z,35.50
2022-08-17T16:22:01.009Z,35.10
2022-08-17T16:24:28.949Z,34.50
2022-08-17T16:26:56.920Z,33.90
2022-08-17T16:29:24.604Z,33.30
2022-08-17T16:31:52.290Z,32.90
2022-08-17T16:34:20.088Z,32.60
2022-08-17T16:36:53.598Z,32.30
2022-08-17T16:39:26.117Z,32.10
2022-08-17T16:41:53.779Z,31.90
2022-08-17T16:44:21.843Z,31.60
2022-08-17T16:46:50.308Z,31.40
2022-08-17T16:49:35.490Z,31.10
2022-08-17T16:52:10.020Z,30.80
2022-08-17T16:54:41.856Z,30.50
2022-08-17T16:57:13.011Z,30.30
2022-08-17T16:59:45.001Z,30.10
2022-08-17T17:02:17.143Z,29.90
2022-08-17T17:05:02.891Z,29.80
2022-08-17T17:08:04.677Z,29.60
2022-08-17T17:10:38.832Z,29.50
2022-08-17T17:13:14.342Z,29.40
2022-08-17T17:16:12.920Z,29.20
2022-08-17T17:19:26.340Z,29.10
2022-08-17T17:22:49.369Z,29.00
2022-08-17T17:25:35.844Z,28.80
2022-08-17T17:28:43.446Z,28.50
2022-08-17T17:31:23.889Z,28.20
2022-08-17T17:33:57.708Z,27.90
2022-08-17T17:36:42.038Z,27.70
2022-08-17T17:39:31.920Z,27.60
2022-08-17T17:42:07.566Z,27.50
2022-08-17T17:44:41.028Z,27.20
2022-08-17T17:47:09.602Z,27.00
2022-08-17T17:49:41.422Z,26.80
2022-08-17T17:52:30.722Z,26.80
2022-08-17T17:55:17.238Z,26.60
2022-08-17T17:58:22.753Z,26.40
2022-08-17T18:01:25.070Z,26.30
2022-08-17T18:04:17.645Z,26.10
2022-08-17T18:07:16.554Z,26.00
2022-08-17T18:10:19.626Z,25.80
2022-08-17T18:13:25.970Z,25.50
2022-08-17T18:15:56.079Z,25.40
2022-08-17T18:18:38.247Z,25.30
2022-08-17T18:21:19.682Z,25.10
2022-08-17T18:23:53.760Z,24.90
2022-08-17T18:26:55.375Z,24.90
2022-08-17T18:29:42.536Z,24.80
2022-08-17T18:32:28.473Z,24.60
2022-08-17T18:35:27.464Z,24.50
2022-08-17T18:38:20.065Z,24.40
2022-08-17T18:41:02.107Z,24.20
2022-08-17T18:43:44.181Z,24.00
2022-08-17T18:46:33.181Z,24.00
2022-08-17T18:49:24.563Z,23.80
2022-08-17T18:52:30.035Z,23.70
2022-08-17T18:55:32.500Z,23.60
2022-08-17T18:58:20.687Z,23.50
2022-08-17T19:00:49.694Z,23.40
2022-08-17T19:03:26.748Z,23.30
2022-08-17T19:06:23.097Z,23.20
2022-08-17T19:08:50.479Z,23.20
2022-08-17T19:11:31.661Z,23.10
2022-08-17T19:14:13.551Z,23.20
2022-08-17T19:17:12.871Z,23.10
2022-08-17T19:19:54.362Z,23.10
2022-08-17T19:22:38.620Z,23.00
2022-08-17T19:25:15.289Z,23.00
2022-08-17T19:28:22.623Z,22.90
2022-08-17T19:30:59.496Z,22.80
2022-08-17T19:33:27.252Z,22.70
2022-08-17T19:36:32.756Z,22.50
2022-08-17T19:39:37.978Z,22.40
2022-08-17T19:42:47.748Z,22.30
2022-08-17T19:45:46.127Z,22.10
2022-08-17T19:48:52.357Z,22.00
2022-08-17T19:51:57.380Z,21.90
2022-08-17T19:54:39.974Z,21.70
2022-08-17T19:57:44.509Z,21.60
2022-08-17T20:00:17.005Z,21.60
2022-08-17T20:03:06.647Z,21.60
2022-08-17T20:06:14.781Z,21.50
2022-08-17T20:09:18.215Z,21.50
2022-08-17T20:11:58.575Z,21.30
2022-08-17T20:14:53.727Z,21.20
2022-08-17T20:17:31.252Z,21.20
2022-08-17T20:20:30.828Z,21.20
2022-08-17T20:23:34.155Z,21.30
2022-08-17T20:26:10.068Z,21.30
2022-08-17T20:28:41.064Z,21.40
2022-08-17T20:31:45.594Z,21.40
2022-08-17T20:34:36.984Z,21.40
2022-08-17T20:37:30.055Z,21.40
2022-08-17T20:40:20.668Z,21.40
2022-08-17T20:42:48.084Z,21.30
2022-08-17T20:45:48.379Z,21.40
2022-08-17T20:48:36.894Z,21.20
2022-08-17T20:51:27.361Z,21.20
2022-08-17T20:54:37.920Z,21.10
2022-08-17T20:57:06.090Z,21.00
2022-08-17T21:00:14.461Z,20.90
2022-08-17T21:02:44.589Z,20.90
2022-08-17T21:05:32.429Z,20.80
2022-08-17T21:08:17.100Z,20.70
2022-08-17T21:10:46.498Z,20.60
2022-08-17T21:13:38.312Z,20.50
2022-08-17T21:16:47.415Z,20.50
2022-08-17T21:20:10.261Z,20.40
2022-08-17T21:23:08.801Z,20.30
2022-08-17T21:26:04.887Z,20.30
2022-08-17T21:29:00.946Z,20.30
2022-08-17T21:32:09.630Z,20.30
2022-08-17T21:35:06.386Z,20.20
2022-08-17T21:37:42.999Z,20.20
2022-08-17T21:40:27.037Z,20.10
2022-08-17T21:43:14.514Z,20.10
2022-08-17T21:45:43.009Z,20.00
2022-08-17T21:48:21.989Z,20.00
2022-08-17T21:51:30.878Z,20.00
2022-08-17T21:54:03.183Z,19.90
2022-08-17T21:56:41.796Z,19.90
2022-08-17T21:59:25.889Z,19.90
2022-08-17T22:02:06.104Z,19.80
2022-08-17T22:04:36.802Z,19.90
2022-08-17T22:07:07.977Z,19.90
2022-08-17T22:09:45.387Z,19.80
2022-08-17T22:12:17.572Z,19.80
2022-08-17T22:15:06.167Z,19.80
2022-08-17T22:17:44.779Z,20.00
2022-08-17T22:20:19.151Z,20.00
2022-08-17T22:23:30.209Z,20.00
2022-08-17T22:26:06.491Z,20.10
2022-08-17T22:28:41.328Z,20.10
2022-08-17T22:31:10.680Z,20.10
2022-08-17T22:33:52.344Z,20.20
2022-08-17T22:36:32.602Z,20.10
2022-08-17T22:39:23.076Z,20.00
2022-08-17T22:41:59.359Z,20.00
2022-08-17T22:44:37.635Z,20.10
2022-08-17T22:47:38.702Z,20.10
2022-08-17T22:50:14.659Z,20.10
2022-08-17T22:53:03.927Z,20.10
2022-08-17T22:55:52.031Z,20.10
2022-08-17T22:58:41.932Z,19.90
2022-08-17T23:01:32.657Z,19.80
2022-08-17T23:04:24.606Z,19.80
2022-08-17T23:06:54.084Z,19.80
2022-08-17T23:09:21.529Z,19.70
2022-08-17T23:11:52.387Z,19.80
2022-08-17T23:14:20.957Z,19.80
2022-08-17T23:16:50.099Z,19.80
2022-08-17T23:19:20.923Z,19.80
2022-08-17T23:21:52.599Z,19.70
2022-08-17T23:24:25.937Z,19.70
2022-08-17T23:26:54.271Z,19.60
2022-08-17T23:29:22.603Z,19.50
2022-08-17T23:31:51.420Z,19.50
2022-08-17T23:34:19.450Z,19.50
2022-08-17T23:36:53.255Z,19.50
2022-08-17T23:39:24.487Z,19.40
2022-08-17T23:41:57.591Z,19.50
2022-08-17T23:44:25.697Z,19.40
2022-08-17T23:46:53.766Z,19.30
2022-08-17T23:49:21.461Z,19.20
2022-08-17T23:51:49.256Z,19.20
2022-08-17T23:54:41.548Z,19.10
2022-08-17T23:57:11.276Z,19.10
2022-08-17T23:59:39.403Z,19.10
